CPA852 VHHH-KSEA
Flight info
| Callsign | CPA852 |
|---|---|
| Flight time | N/A |
| Altitude | 35000 |
| Route | DALOL V631 ENVAR M750 INVAM/N0488F370 M750 MUKEP Y891 OVSUN/N0489F360 Y893 IGMIS/N0486F370 Y57 LIGNI Y816 IPROS Y830 LAPIL OTR13 SEALS DCT 35N150E 35N155E 35N160E 35N165E/N0477F390 35N170E 35N175E 35N180E 35N175W 37N170W 39N160W 42N150W/N0483F410 46N140W 47N130W DCT TOU MARNR8 |
| Aircraft | A359/H-SABDE2E3GHIJ1J2J3J4J5LM1OP2RVWXYZ/LB1D1G1 |
Departure
| Time | 2026-04-30 08:05 |
|---|---|
| Airport | Hong Kong International Airport (VHHH) |
Arrival
| Time | N/A |
|---|---|
| Airport | Seattle–Tacoma International Airport (KSEA) |
| Time | Latitude | Longitude | Altitude | Speed | Heading |
|---|---|---|---|---|---|
| 2026-04-30 07:08 | 22.31319 | 113.93040 | 38 ft | 0 kts | 341° |
| 2026-04-30 07:52 | 22.31317 | 113.93040 | 38 ft | 2 kts | 341° |
| 2026-04-30 07:53 | 22.31296 | 113.93048 | 37 ft | 3 kts | 341° |
| 2026-04-30 07:53 | 22.31275 | 113.93056 | 38 ft | 3 kts | 341° |
| 2026-04-30 07:53 | 22.31257 | 113.93062 | 38 ft | 3 kts | 333° |
| 2026-04-30 07:53 | 22.31242 | 113.93075 | 37 ft | 3 kts | 289° |
| 2026-04-30 07:54 | 22.31240 | 113.93097 | 37 ft | 3 kts | 255° |
| 2026-04-30 07:54 | 22.31246 | 113.93119 | 37 ft | 3 kts | 251° |
| 2026-04-30 07:54 | 22.31254 | 113.93141 | 37 ft | 3 kts | 251° |
| 2026-04-30 07:54 | 22.31256 | 113.93149 | 38 ft | 0 kts | 251° |
| 2026-04-30 07:57 | 22.31255 | 113.93144 | 38 ft | 3 kts | 250° |
| 2026-04-30 07:57 | 22.31240 | 113.93103 | 36 ft | 8 kts | 246° |
| 2026-04-30 07:57 | 22.31199 | 113.93081 | 37 ft | 7 kts | 180° |
| 2026-04-30 07:58 | 22.31151 | 113.93095 | 38 ft | 8 kts | 161° |
| 2026-04-30 07:58 | 22.31095 | 113.93116 | 38 ft | 10 kts | 161° |
| 2026-04-30 07:58 | 22.31022 | 113.93143 | 38 ft | 12 kts | 165° |
| 2026-04-30 07:58 | 22.30965 | 113.93103 | 38 ft | 11 kts | 247° |
| 2026-04-30 07:59 | 22.30937 | 113.93021 | 38 ft | 13 kts | 251° |
| 2026-04-30 07:59 | 22.30903 | 113.92913 | 38 ft | 17 kts | 250° |
| 2026-04-30 07:59 | 22.30859 | 113.92779 | 38 ft | 21 kts | 251° |
| 2026-04-30 08:00 | 22.30748 | 113.92437 | 38 ft | 27 kts | 250° |
| 2026-04-30 08:00 | 22.30684 | 113.92238 | 38 ft | 29 kts | 251° |
| 2026-04-30 08:00 | 22.30617 | 113.92029 | 38 ft | 29 kts | 251° |
| 2026-04-30 08:00 | 22.30551 | 113.91821 | 38 ft | 29 kts | 250° |
| 2026-04-30 08:01 | 22.30484 | 113.91618 | 38 ft | 29 kts | 250° |
| 2026-04-30 08:01 | 22.30419 | 113.91417 | 38 ft | 28 kts | 251° |
| 2026-04-30 08:01 | 22.30357 | 113.91219 | 38 ft | 28 kts | 250° |
| 2026-04-30 08:01 | 22.30293 | 113.91026 | 38 ft | 27 kts | 251° |
| 2026-04-30 08:02 | 22.30168 | 113.90636 | 38 ft | 28 kts | 251° |
| 2026-04-30 08:02 | 22.30103 | 113.90435 | 38 ft | 29 kts | 251° |
| 2026-04-30 08:03 | 22.29971 | 113.90026 | 38 ft | 28 kts | 252° |
| 2026-04-30 08:03 | 22.29872 | 113.89744 | 38 ft | 11 kts | 224° |
| 2026-04-30 08:03 | 22.29803 | 113.89741 | 38 ft | 11 kts | 161° |
| 2026-04-30 08:04 | 22.29716 | 113.89775 | 38 ft | 15 kts | 161° |
| 2026-04-30 08:04 | 22.29639 | 113.89804 | 36 ft | 7 kts | 155° |
| 2026-04-30 08:04 | 22.29632 | 113.89836 | 36 ft | 4 kts | 76° |
| 2026-04-30 08:04 | 22.29649 | 113.89890 | 36 ft | 21 kts | 71° |
| 2026-04-30 08:05 | 22.29767 | 113.90257 | 37 ft | 82 kts | 70° |
| 2026-04-30 08:05 | 22.30016 | 113.91028 | 38 ft | 134 kts | 70° |
| 2026-04-30 08:05 | 22.30372 | 113.92143 | 59 ft | 175 kts | 70° |
| 2026-04-30 08:05 | 22.30721 | 113.93319 | 798 ft | 162 kts | 68° |
| 2026-04-30 08:06 | 22.31064 | 113.94492 | 1325 ft | 166 kts | 71° |
| 2026-04-30 08:06 | 22.31465 | 113.95709 | 1605 ft | 180 kts | 68° |
| 2026-04-30 08:06 | 22.31922 | 113.97042 | 1899 ft | 198 kts | 67° |
| 2026-04-30 08:06 | 22.32401 | 113.98475 | 2302 ft | 206 kts | 68° |
| 2026-04-30 08:07 | 22.32877 | 113.99940 | 2814 ft | 207 kts | 68° |
| 2026-04-30 08:07 | 22.33357 | 114.01420 | 3300 ft | 211 kts | 68° |
| 2026-04-30 08:07 | 22.33753 | 114.02965 | 3681 ft | 218 kts | 79° |
| 2026-04-30 08:07 | 22.33739 | 114.04632 | 4078 ft | 228 kts | 99° |
| 2026-04-30 08:08 | 22.33162 | 114.06253 | 4484 ft | 236 kts | 122° |
| 2026-04-30 08:08 | 22.32049 | 114.07567 | 4884 ft | 240 kts | 144° |
| 2026-04-30 08:08 | 22.30557 | 114.08448 | 5145 ft | 251 kts | 164° |
| 2026-04-30 08:08 | 22.29403 | 114.08732 | 5430 ft | 253 kts | 177° |
| 2026-04-30 08:09 | 22.27052 | 114.08777 | 5991 ft | 263 kts | 184° |
| 2026-04-30 08:09 | 22.25797 | 114.08745 | 6251 ft | 270 kts | 184° |
| 2026-04-30 08:09 | 22.23906 | 114.08704 | 6766 ft | 274 kts | 184° |
| 2026-04-30 08:09 | 22.21981 | 114.08673 | 7303 ft | 278 kts | 184° |
| 2026-04-30 08:10 | 22.20036 | 114.08649 | 7898 ft | 281 kts | 184° |
| 2026-04-30 08:10 | 22.18070 | 114.08726 | 8495 ft | 286 kts | 175° |
| 2026-04-30 08:10 | 22.16190 | 114.09503 | 9064 ft | 298 kts | 148° |
| 2026-04-30 08:10 | 22.14799 | 114.11183 | 9625 ft | 307 kts | 122° |
| 2026-04-30 08:11 | 22.13793 | 114.13236 | 10144 ft | 313 kts | 119° |
| 2026-04-30 08:11 | 22.12804 | 114.15387 | 10394 ft | 327 kts | 119° |
| 2026-04-30 08:11 | 22.11766 | 114.17622 | 10636 ft | 341 kts | 119° |
| 2026-04-30 08:11 | 22.10676 | 114.19946 | 10879 ft | 354 kts | 119° |
| 2026-04-30 08:12 | 22.09538 | 114.22354 | 11122 ft | 366 kts | 119° |
| 2026-04-30 08:12 | 22.08334 | 114.24821 | 11343 ft | 377 kts | 123° |
| 2026-04-30 08:12 | 22.06660 | 114.27012 | 11540 ft | 382 kts | 142° |
| 2026-04-30 08:12 | 22.04537 | 114.28780 | 11805 ft | 389 kts | 147° |
| 2026-04-30 08:13 | 22.02327 | 114.30499 | 12174 ft | 394 kts | 147° |
| 2026-04-30 08:13 | 22.00096 | 114.32236 | 12560 ft | 398 kts | 147° |
| 2026-04-30 08:13 | 21.97845 | 114.33998 | 12959 ft | 402 kts | 147° |
| 2026-04-30 08:13 | 21.95578 | 114.35778 | 13366 ft | 405 kts | 147° |
| 2026-04-30 08:14 | 21.93299 | 114.37577 | 13760 ft | 408 kts | 147° |
| 2026-04-30 08:14 | 21.91005 | 114.39379 | 14121 ft | 410 kts | 147° |
| 2026-04-30 08:14 | 21.88688 | 114.41199 | 14484 ft | 413 kts | 147° |
| 2026-04-30 08:14 | 21.86425 | 114.43115 | 14849 ft | 418 kts | 139° |
| 2026-04-30 08:15 | 21.84637 | 114.45595 | 15196 ft | 425 kts | 120° |
| 2026-04-30 08:15 | 21.83578 | 114.48578 | 15558 ft | 429 kts | 107° |
| 2026-04-30 08:15 | 21.82788 | 114.51689 | 15898 ft | 432 kts | 106° |
| 2026-04-30 08:15 | 21.82016 | 114.54827 | 16250 ft | 435 kts | 106° |
| 2026-04-30 08:16 | 21.81228 | 114.57975 | 16612 ft | 437 kts | 106° |
| 2026-04-30 08:16 | 21.80425 | 114.61138 | 16969 ft | 439 kts | 106° |
| 2026-04-30 08:16 | 21.79612 | 114.64312 | 17317 ft | 441 kts | 107° |
| 2026-04-30 08:16 | 21.78791 | 114.67498 | 17668 ft | 443 kts | 107° |
| 2026-04-30 08:17 | 21.77962 | 114.70704 | 18016 ft | 446 kts | 107° |
| 2026-04-30 08:17 | 21.77126 | 114.73930 | 18346 ft | 448 kts | 107° |
| 2026-04-30 08:17 | 21.76287 | 114.77164 | 18648 ft | 450 kts | 107° |
| 2026-04-30 08:17 | 21.75443 | 114.80414 | 18940 ft | 452 kts | 107° |
| 2026-04-30 08:18 | 21.74650 | 114.83698 | 19227 ft | 455 kts | 102° |
| 2026-04-30 08:18 | 21.74270 | 114.87088 | 19508 ft | 458 kts | 94° |
| 2026-04-30 08:18 | 21.74152 | 114.90512 | 19804 ft | 460 kts | 91° |
| 2026-04-30 08:18 | 21.74163 | 114.93961 | 20096 ft | 462 kts | 89° |
| 2026-04-30 08:19 | 21.74222 | 114.97420 | 20389 ft | 464 kts | 89° |
| 2026-04-30 08:19 | 21.74283 | 115.00893 | 20690 ft | 466 kts | 89° |
| 2026-04-30 08:19 | 21.74327 | 115.04392 | 20987 ft | 468 kts | 90° |
| 2026-04-30 08:19 | 21.74352 | 115.07896 | 21275 ft | 470 kts | 90° |
| 2026-04-30 08:20 | 21.74362 | 115.11418 | 21565 ft | 472 kts | 90° |
| 2026-04-30 08:20 | 21.74361 | 115.14964 | 21862 ft | 474 kts | 90° |
| 2026-04-30 08:20 | 21.74356 | 115.18516 | 22157 ft | 476 kts | 90° |
| 2026-04-30 08:20 | 21.74348 | 115.22071 | 22436 ft | 478 kts | 90° |
| 2026-04-30 08:21 | 21.74340 | 115.25648 | 22740 ft | 480 kts | 90° |
| 2026-04-30 08:21 | 21.74331 | 115.29250 | 23026 ft | 482 kts | 90° |
| 2026-04-30 08:21 | 21.74322 | 115.32866 | 23311 ft | 484 kts | 90° |
| 2026-04-30 08:21 | 21.74313 | 115.36496 | 23601 ft | 486 kts | 90° |
| 2026-04-30 08:22 | 21.74303 | 115.40142 | 23841 ft | 488 kts | 90° |
| 2026-04-30 08:22 | 21.74293 | 115.43795 | 24078 ft | 490 kts | 90° |
| 2026-04-30 08:22 | 21.74282 | 115.47471 | 24314 ft | 492 kts | 91° |
| 2026-04-30 08:22 | 21.74270 | 115.51152 | 24563 ft | 493 kts | 91° |
| 2026-04-30 08:23 | 21.74257 | 115.54851 | 24821 ft | 495 kts | 91° |
| 2026-04-30 08:23 | 21.74243 | 115.58564 | 25090 ft | 497 kts | 91° |
| 2026-04-30 08:23 | 21.74227 | 115.62332 | 25367 ft | 499 kts | 91° |
| 2026-04-30 08:23 | 21.74212 | 115.66026 | 25658 ft | 501 kts | 91° |
| 2026-04-30 08:24 | 21.74198 | 115.69763 | 25979 ft | 502 kts | 91° |
| 2026-04-30 08:24 | 21.74184 | 115.73542 | 26287 ft | 504 kts | 91° |
| 2026-04-30 08:24 | 21.74168 | 115.77322 | 26582 ft | 507 kts | 91° |
| 2026-04-30 08:24 | 21.74151 | 115.81123 | 26888 ft | 509 kts | 91° |
| 2026-04-30 08:25 | 21.74133 | 115.84940 | 27180 ft | 511 kts | 91° |
| 2026-04-30 08:25 | 21.74114 | 115.88774 | 27479 ft | 513 kts | 91° |
| 2026-04-30 08:25 | 21.74093 | 115.92622 | 27771 ft | 516 kts | 91° |
| 2026-04-30 08:25 | 21.74072 | 115.96482 | 28051 ft | 518 kts | 91° |
| 2026-04-30 08:26 | 21.74049 | 116.00376 | 28310 ft | 521 kts | 91° |
| 2026-04-30 08:26 | 21.74026 | 116.04278 | 28587 ft | 523 kts | 91° |
| 2026-04-30 08:26 | 21.74001 | 116.08198 | 28889 ft | 526 kts | 91° |
| 2026-04-30 08:26 | 21.73975 | 116.12143 | 29125 ft | 528 kts | 91° |
| 2026-04-30 08:27 | 21.73949 | 116.16093 | 29396 ft | 530 kts | 91° |
| 2026-04-30 08:27 | 21.73921 | 116.20118 | 29651 ft | 532 kts | 91° |
| 2026-04-30 08:27 | 21.73892 | 116.24051 | 29890 ft | 534 kts | 91° |
| 2026-04-30 08:27 | 21.73862 | 116.28101 | 30105 ft | 536 kts | 91° |
| 2026-04-30 08:28 | 21.73831 | 116.32129 | 30291 ft | 538 kts | 91° |
| 2026-04-30 08:28 | 21.73799 | 116.36155 | 30487 ft | 540 kts | 91° |
| 2026-04-30 08:28 | 21.73766 | 116.40202 | 30681 ft | 542 kts | 91° |
| 2026-04-30 08:28 | 21.73732 | 116.44254 | 30879 ft | 543 kts | 91° |
| 2026-04-30 08:29 | 21.73697 | 116.48321 | 31154 ft | 542 kts | 91° |
| 2026-04-30 08:29 | 21.73661 | 116.52373 | 31436 ft | 542 kts | 91° |
| 2026-04-30 08:29 | 21.73625 | 116.56413 | 31716 ft | 541 kts | 91° |
| 2026-04-30 08:29 | 21.73587 | 116.60457 | 32008 ft | 539 kts | 91° |
| 2026-04-30 08:30 | 21.73548 | 116.64479 | 32326 ft | 538 kts | 91° |
| 2026-04-30 08:30 | 21.73509 | 116.68506 | 32572 ft | 537 kts | 92° |
| 2026-04-30 08:30 | 21.73468 | 116.72524 | 32824 ft | 537 kts | 92° |
| 2026-04-30 08:30 | 21.73638 | 116.76540 | 33048 ft | 538 kts | 84° |
| 2026-04-30 08:31 | 21.74341 | 116.80486 | 33287 ft | 538 kts | 74° |
| 2026-04-30 08:31 | 21.75500 | 116.84320 | 33410 ft | 540 kts | 70° |
| 2026-04-30 08:31 | 21.76802 | 116.88118 | 33597 ft | 540 kts | 69° |
| 2026-04-30 08:31 | 21.78159 | 116.91868 | 33963 ft | 536 kts | 68° |
| 2026-04-30 08:32 | 21.79532 | 116.95586 | 34208 ft | 535 kts | 68° |
| 2026-04-30 08:32 | 21.80911 | 116.99316 | 34371 ft | 535 kts | 68° |
| 2026-04-30 08:32 | 21.82281 | 117.03042 | 34549 ft | 535 kts | 68° |
| 2026-04-30 08:32 | 21.83639 | 117.06764 | 34735 ft | 535 kts | 68° |
| 2026-04-30 08:33 | 21.84992 | 117.10495 | 34905 ft | 534 kts | 68° |
| 2026-04-30 08:33 | 21.87692 | 117.17981 | 34992 ft | 540 kts | 68° |
| 2026-04-30 08:34 | 21.90404 | 117.25525 | 34990 ft | 538 kts | 68° |
| 2026-04-30 08:34 | 21.93095 | 117.33024 | 34990 ft | 537 kts | 68° |
| 2026-04-30 08:35 | 21.95793 | 117.40549 | 34990 ft | 539 kts | 68° |
| 2026-04-30 08:35 | 21.98518 | 117.48089 | 34983 ft | 541 kts | 66° |
| 2026-04-30 08:36 | 22.02102 | 117.55179 | 34993 ft | 537 kts | 58° |
| 2026-04-30 08:36 | 22.05976 | 117.62056 | 34990 ft | 537 kts | 57° |
| 2026-04-30 08:37 | 22.09895 | 117.68908 | 34990 ft | 537 kts | 57° |
| 2026-04-30 08:37 | 22.13805 | 117.75774 | 34990 ft | 537 kts | 57° |
| 2026-04-30 08:38 | 22.17700 | 117.82649 | 34991 ft | 539 kts | 57° |
| 2026-04-30 08:38 | 22.21609 | 117.89567 | 34993 ft | 540 kts | 57° |
| 2026-04-30 08:39 | 22.25518 | 117.96496 | 34993 ft | 540 kts | 57° |
| 2026-04-30 08:39 | 22.29430 | 118.03422 | 34996 ft | 540 kts | 57° |
| 2026-04-30 08:40 | 22.33435 | 118.10283 | 34994 ft | 539 kts | 56° |
| 2026-04-30 08:40 | 22.37454 | 118.17115 | 35011 ft | 537 kts | 56° |
| 2026-04-30 08:41 | 22.41450 | 118.23961 | 34996 ft | 541 kts | 57° |
| 2026-04-30 08:41 | 22.45396 | 118.30907 | 34998 ft | 542 kts | 57° |
| 2026-04-30 08:42 | 22.49312 | 118.37869 | 34988 ft | 542 kts | 57° |
| 2026-04-30 08:42 | 22.53229 | 118.44819 | 34991 ft | 539 kts | 57° |
| 2026-04-30 08:43 | 22.57135 | 118.51742 | 34997 ft | 539 kts | 57° |
| 2026-04-30 08:43 | 22.60392 | 118.57489 | 34992 ft | 539 kts | 57° |
| 2026-04-30 08:44 | 22.64330 | 118.64383 | 34998 ft | 539 kts | 57° |
| 2026-04-30 08:44 | 22.68265 | 118.71283 | 34994 ft | 537 kts | 57° |
| 2026-04-30 08:45 | 22.72205 | 118.78215 | 34995 ft | 536 kts | 57° |
| 2026-04-30 08:45 | 22.76107 | 118.85094 | 34996 ft | 536 kts | 57° |
| 2026-04-30 08:46 | 22.80010 | 118.91986 | 34997 ft | 536 kts | 57° |
| 2026-04-30 08:46 | 22.83923 | 118.98901 | 34993 ft | 540 kts | 57° |
| 2026-04-30 08:47 | 22.87837 | 119.05832 | 34995 ft | 538 kts | 57° |
| 2026-04-30 08:47 | 22.91746 | 119.12760 | 34998 ft | 538 kts | 57° |
| 2026-04-30 08:48 | 22.95648 | 119.19686 | 34992 ft | 538 kts | 57° |
| 2026-04-30 08:48 | 22.99551 | 119.26623 | 34994 ft | 538 kts | 57° |
| 2026-04-30 08:49 | 23.03441 | 119.33545 | 34990 ft | 539 kts | 57° |
| 2026-04-30 08:49 | 23.07351 | 119.40513 | 34991 ft | 541 kts | 57° |
| 2026-04-30 08:50 | 23.11260 | 119.47488 | 34992 ft | 541 kts | 57° |
| 2026-04-30 08:50 | 23.15165 | 119.54467 | 34976 ft | 541 kts | 57° |
| 2026-04-30 08:51 | 23.19053 | 119.61431 | 34985 ft | 537 kts | 58° |
| 2026-04-30 08:51 | 23.22924 | 119.68368 | 34990 ft | 537 kts | 57° |
| 2026-04-30 08:52 | 23.26821 | 119.75343 | 34984 ft | 542 kts | 57° |
| 2026-04-30 08:52 | 23.30732 | 119.82358 | 34986 ft | 542 kts | 58° |
| 2026-04-30 08:53 | 23.34639 | 119.89363 | 34984 ft | 541 kts | 57° |
| 2026-04-30 08:53 | 23.39428 | 119.95608 | 34990 ft | 536 kts | 43° |
| 2026-04-30 08:54 | 23.44787 | 120.01255 | 34993 ft | 537 kts | 41° |
| 2026-04-30 08:54 | 23.50256 | 120.06838 | 34993 ft | 539 kts | 40° |
| 2026-04-30 08:55 | 23.55726 | 120.12435 | 34986 ft | 540 kts | 41° |
| 2026-04-30 08:55 | 23.61178 | 120.18052 | 34990 ft | 539 kts | 41° |
| 2026-04-30 08:56 | 23.66617 | 120.23676 | 34999 ft | 539 kts | 41° |
| 2026-04-30 08:56 | 23.72066 | 120.29317 | 34996 ft | 541 kts | 41° |
| 2026-04-30 08:57 | 23.77557 | 120.35008 | 35003 ft | 541 kts | 41° |
| 2026-04-30 08:57 | 23.83012 | 120.40668 | 34993 ft | 541 kts | 41° |
| 2026-04-30 08:58 | 23.88461 | 120.46330 | 35008 ft | 541 kts | 41° |
| 2026-04-30 08:58 | 23.93907 | 120.52009 | 35003 ft | 542 kts | 41° |
| 2026-04-30 08:59 | 23.99333 | 120.57736 | 35007 ft | 542 kts | 42° |
| 2026-04-30 08:59 | 24.04752 | 120.63471 | 35016 ft | 542 kts | 42° |
| 2026-04-30 09:00 | 24.10165 | 120.69198 | 35037 ft | 542 kts | 41° |
| 2026-04-30 09:00 | 24.15595 | 120.74945 | 35027 ft | 544 kts | 41° |
| 2026-04-30 09:01 | 24.21042 | 120.80715 | 35029 ft | 545 kts | 41° |
| 2026-04-30 09:01 | 24.26489 | 120.86494 | 35029 ft | 545 kts | 41° |
| 2026-04-30 09:02 | 24.34649 | 120.95170 | 35045 ft | 545 kts | 41° |
| 2026-04-30 09:02 | 24.40088 | 121.00969 | 35048 ft | 545 kts | 43° |
| 2026-04-30 09:03 | 24.45034 | 121.07295 | 35052 ft | 546 kts | 49° |
| 2026-04-30 09:03 | 24.49781 | 121.13804 | 35056 ft | 546 kts | 50° |
| 2026-04-30 09:04 | 24.54505 | 121.20356 | 35071 ft | 547 kts | 50° |
| 2026-04-30 09:04 | 24.59244 | 121.26915 | 35053 ft | 548 kts | 50° |
| 2026-04-30 09:05 | 24.63974 | 121.33462 | 35066 ft | 547 kts | 50° |
| 2026-04-30 09:05 | 24.68700 | 121.40014 | 35067 ft | 547 kts | 50° |
| 2026-04-30 09:06 | 24.73425 | 121.46567 | 35057 ft | 546 kts | 50° |
| 2026-04-30 09:06 | 24.78142 | 121.53120 | 35038 ft | 547 kts | 50° |
| 2026-04-30 09:07 | 24.82855 | 121.59677 | 35049 ft | 546 kts | 50° |
| 2026-04-30 09:07 | 24.87560 | 121.66235 | 35046 ft | 546 kts | 50° |
| 2026-04-30 09:08 | 24.92315 | 121.72772 | 35040 ft | 546 kts | 48° |
| 2026-04-30 09:08 | 24.97306 | 121.79077 | 35050 ft | 547 kts | 46° |
| 2026-04-30 09:09 | 25.02351 | 121.85370 | 35048 ft | 548 kts | 46° |
| 2026-04-30 09:09 | 25.07366 | 121.91712 | 35054 ft | 548 kts | 47° |